sensor_id;sensor_type;location;lat;lon;timestamp;temperature;humidity
51867;DHT22;52862;52.504;13.480;2023-06-14T00:01:10;16.10;99.90
51867;DHT22;52862;52.504;13.480;2023-06-14T00:03:39;16.10;99.90
51867;DHT22;52862;52.504;13.480;2023-06-14T00:06:06;16.00;99.90
51867;DHT22;52862;52.504;13.480;2023-06-14T00:08:33;16.00;99.90
51867;DHT22;52862;52.504;13.480;2023-06-14T00:11:00;15.90;99.90
51867;DHT22;52862;52.504;13.480;2023-06-14T00:13:26;15.90;99.90
51867;DHT22;52862;52.504;13.480;2023-06-14T00:15:53;15.90;99.90
51867;DHT22;52862;52.504;13.480;2023-06-14T00:18:21;15.80;99.90
51867;DHT22;52862;52.504;13.480;2023-06-14T00:20:50;15.80;99.90
51867;DHT22;52862;52.504;13.480;2023-06-14T00:23:17;15.80;99.90
51867;DHT22;52862;52.504;13.480;2023-06-14T00:25:44;15.90;99.90
51867;DHT22;52862;52.504;13.480;2023-06-14T00:28:11;15.80;99.90
51867;DHT22;52862;52.504;13.480;2023-06-14T00:30:37;15.80;99.90
51867;DHT22;52862;52.504;13.480;2023-06-14T00:33:04;15.70;99.90
51867;DHT22;52862;52.504;13.480;2023-06-14T00:35:31;15.40;99.90
51867;DHT22;52862;52.504;13.480;2023-06-14T00:37:58;15.60;99.90
51867;DHT22;52862;52.504;13.480;2023-06-14T00:40:25;15.60;99.90
51867;DHT22;52862;52.504;13.480;2023-06-14T00:42:52;15.60;99.90
51867;DHT22;52862;52.504;13.480;2023-06-14T00:45:19;15.60;99.90
51867;DHT22;52862;52.504;13.480;2023-06-14T00:47:46;15.60;99.90
51867;DHT22;52862;52.504;13.480;2023-06-14T00:50:14;15.50;99.90
51867;DHT22;52862;52.504;13.480;2023-06-14T00:52:41;15.50;99.90
51867;DHT22;52862;52.504;13.480;2023-06-14T00:55:08;15.50;99.90
51867;DHT22;52862;52.504;13.480;2023-06-14T00:57:35;15.50;99.90
51867;DHT22;52862;52.504;13.480;2023-06-14T01:00:04;15.50;99.90
51867;DHT22;52862;52.504;13.480;2023-06-14T01:02:35;15.40;99.90
51867;DHT22;52862;52.504;13.480;2023-06-14T01:05:04;15.50;99.90
51867;DHT22;52862;52.504;13.480;2023-06-14T01:07:38;16.90;99.90
51867;DHT22;52862;52.504;13.480;2023-06-14T01:10:17;15.40;99.90
51867;DHT22;52862;52.504;13.480;2023-06-14T01:12:53;15.40;99.90
51867;DHT22;52862;52.504;13.480;2023-06-14T01:15:21;15.40;99.90
51867;DHT22;52862;52.504;13.480;2023-06-14T01:17:50;15.30;99.90
51867;DHT22;52862;52.504;13.480;2023-06-14T01:20:19;15.30;99.90
51867;DHT22;52862;52.504;13.480;2023-06-14T01:22:51;15.30;99.90
51867;DHT22;52862;52.504;13.480;2023-06-14T01:25:19;15.30;99.90
51867;DHT22;52862;52.504;13.480;2023-06-14T01:27:49;15.30;99.90
51867;DHT22;52862;52.504;13.480;2023-06-14T01:30:18;15.30;99.90
51867;DHT22;52862;52.504;13.480;2023-06-14T01:32:47;15.40;99.90
51867;DHT22;52862;52.504;13.480;2023-06-14T01:35:15;15.20;99.90
51867;DHT22;52862;52.504;13.480;2023-06-14T01:37:43;15.20;99.90
51867;DHT22;52862;52.504;13.480;2023-06-14T01:40:14;15.20;99.90
51867;DHT22;52862;52.504;13.480;2023-06-14T01:42:42;15.30;99.90
51867;DHT22;52862;52.504;13.480;2023-06-14T01:45:10;15.20;99.90
51867;DHT22;52862;52.504;13.480;2023-06-14T01:47:37;15.20;99.90
51867;DHT22;52862;52.504;13.480;2023-06-14T01:50:06;15.20;99.90
51867;DHT22;52862;52.504;13.480;2023-06-14T01:52:33;15.10;99.90
51867;DHT22;52862;52.504;13.480;2023-06-14T01:54:59;15.10;99.90
51867;DHT22;52862;52.504;13.480;2023-06-14T01:57:29;15.00;99.90
51867;DHT22;52862;52.504;13.480;2023-06-14T01:59:56;15.00;99.90
51867;DHT22;52862;52.504;13.480;2023-06-14T02:02:23;15.00;99.90
51867;DHT22;52862;52.504;13.480;2023-06-14T02:04:49;15.00;99.90
51867;DHT22;52862;52.504;13.480;2023-06-14T02:07:16;14.90;99.90
51867;DHT22;52862;52.504;13.480;2023-06-14T02:09:43;15.00;99.90
51867;DHT22;52862;52.504;13.480;2023-06-14T02:12:10;15.00;99.90
51867;DHT22;52862;52.504;13.480;2023-06-14T02:14:38;15.00;99.90
51867;DHT22;52862;52.504;13.480;2023-06-14T02:17:05;15.00;99.90
51867;DHT22;52862;52.504;13.480;2023-06-14T02:19:32;15.00;99.90
51867;DHT22;52862;52.504;13.480;2023-06-14T02:21:59;15.00;99.90
51867;DHT22;52862;52.504;13.480;2023-06-14T02:24:26;15.00;99.90
51867;DHT22;52862;52.504;13.480;2023-06-14T02:26:54;15.00;99.90
51867;DHT22;52862;52.504;13.480;2023-06-14T02:29:21;15.00;99.90
51867;DHT22;52862;52.504;13.480;2023-06-14T02:31:48;14.90;99.90
51867;DHT22;52862;52.504;13.480;2023-06-14T02:34:15;14.90;99.90
51867;DHT22;52862;52.504;13.480;2023-06-14T02:36:44;14.90;99.90
51867;DHT22;52862;52.504;13.480;2023-06-14T02:39:11;15.70;99.90
51867;DHT22;52862;52.504;13.480;2023-06-14T02:41:38;14.80;99.90
51867;DHT22;52862;52.504;13.480;2023-06-14T02:44:05;14.70;99.90
51867;DHT22;52862;52.504;13.480;2023-06-14T02:46:32;14.80;99.90
51867;DHT22;52862;52.504;13.480;2023-06-14T02:49:00;14.80;99.90
51867;DHT22;52862;52.504;13.480;2023-06-14T02:51:26;14.80;99.90
51867;DHT22;52862;52.504;13.480;2023-06-14T02:53:53;14.80;99.90
51867;DHT22;52862;52.504;13.480;2023-06-14T02:56:20;14.80;99.90
51867;DHT22;52862;52.504;13.480;2023-06-14T02:58:48;14.80;99.90
51867;DHT22;52862;52.504;13.480;2023-06-14T03:01:16;14.80;99.90
51867;DHT22;52862;52.504;13.480;2023-06-14T03:03:45;14.80;99.90
51867;DHT22;52862;52.504;13.480;2023-06-14T03:06:12;14.80;99.90
51867;DHT22;52862;52.504;13.480;2023-06-14T03:08:40;14.80;99.90
51867;DHT22;52862;52.504;13.480;2023-06-14T03:11:08;14.80;99.90
51867;DHT22;52862;52.504;13.480;2023-06-14T03:13:34;14.90;99.90
51867;DHT22;52862;52.504;13.480;2023-06-14T03:16:01;14.80;99.90
51867;DHT22;52862;52.504;13.480;2023-06-14T03:18:29;14.80;99.90
51867;DHT22;52862;52.504;13.480;2023-06-14T03:20:56;13.90;99.90
51867;DHT22;52862;52.504;13.480;2023-06-14T03:23:25;14.80;99.90
51867;DHT22;52862;52.504;13.480;2023-06-14T03:25:51;14.90;99.90
51867;DHT22;52862;52.504;13.480;2023-06-14T03:28:18;14.90;99.90
51867;DHT22;52862;52.504;13.480;2023-06-14T03:30:45;14.90;99.90
51867;DHT22;52862;52.504;13.480;2023-06-14T03:33:11;14.90;99.90
51867;DHT22;52862;52.504;13.480;2023-06-14T03:35:38;14.90;99.90
51867;DHT22;52862;52.504;13.480;2023-06-14T03:38:05;14.90;99.90
51867;DHT22;52862;52.504;13.480;2023-06-14T03:40:33;15.00;99.90
51867;DHT22;52862;52.504;13.480;2023-06-14T03:42:59;15.00;99.90
51867;DHT22;52862;52.504;13.480;2023-06-14T03:45:26;14.90;99.90
51867;DHT22;52862;52.504;13.480;2023-06-14T03:47:53;14.90;99.90
51867;DHT22;52862;52.504;13.480;2023-06-14T03:50:20;14.90;99.90
51867;DHT22;52862;52.504;13.480;2023-06-14T03:52:48;14.90;99.90
51867;DHT22;52862;52.504;13.480;2023-06-14T03:55:15;15.00;99.90
51867;DHT22;52862;52.504;13.480;2023-06-14T03:58:02;15.10;99.90
51867;DHT22;52862;52.504;13.480;2023-06-14T04:00:30;15.20;99.90
51867;DHT22;52862;52.504;13.480;2023-06-14T04:02:57;15.40;99.90
51867;DHT22;52862;52.504;13.480;2023-06-14T04:05:24;15.60;99.90
51867;DHT22;52862;52.504;13.480;2023-06-14T04:07:52;15.70;99.90
51867;DHT22;52862;52.504;13.480;2023-06-14T04:10:21;15.80;99.90
51867;DHT22;52862;52.504;13.480;2023-06-14T04:12:48;15.90;99.90
51867;DHT22;52862;52.504;13.480;2023-06-14T04:15:16;16.00;99.90
51867;DHT22;52862;52.504;13.480;2023-06-14T04:17:47;16.00;99.90
51867;DHT22;52862;52.504;13.480;2023-06-14T04:20:14;16.00;99.90
51867;DHT22;52862;52.504;13.480;2023-06-14T04:22:41;16.20;99.90
51867;DHT22;52862;52.504;13.480;2023-06-14T04:25:09;16.20;99.90
51867;DHT22;52862;52.504;13.480;2023-06-14T04:27:36;16.30;99.90
51867;DHT22;52862;52.504;13.480;2023-06-14T04:30:03;16.40;99.90
51867;DHT22;52862;52.504;13.480;2023-06-14T04:32:31;16.40;99.90
51867;DHT22;52862;52.504;13.480;2023-06-14T04:34:59;16.50;99.90
51867;DHT22;52862;52.504;13.480;2023-06-14T04:37:29;16.50;99.90
51867;DHT22;52862;52.504;13.480;2023-06-14T04:39:56;16.60;99.90
51867;DHT22;52862;52.504;13.480;2023-06-14T04:42:23;16.60;99.90
51867;DHT22;52862;52.504;13.480;2023-06-14T04:44:51;16.70;99.90
51867;DHT22;52862;52.504;13.480;2023-06-14T04:47:21;16.90;99.90
51867;DHT22;52862;52.504;13.480;2023-06-14T04:49:48;16.90;99.90
51867;DHT22;52862;52.504;13.480;2023-06-14T04:52:17;17.10;99.90
51867;DHT22;52862;52.504;13.480;2023-06-14T04:54:47;17.20;99.90
51867;DHT22;52862;52.504;13.480;2023-06-14T04:57:13;17.30;99.90
51867;DHT22;52862;52.504;13.480;2023-06-14T04:59:43;17.40;99.90
51867;DHT22;52862;52.504;13.480;2023-06-14T05:02:10;17.40;99.90
51867;DHT22;52862;52.504;13.480;2023-06-14T05:04:38;17.50;99.90
51867;DHT22;52862;52.504;13.480;2023-06-14T05:07:07;17.40;99.90
51867;DHT22;52862;52.504;13.480;2023-06-14T05:09:35;17.20;99.90
51867;DHT22;52862;52.504;13.480;2023-06-14T05:12:02;17.00;99.90
51867;DHT22;52862;52.504;13.480;2023-06-14T05:14:28;17.00;99.90
51867;DHT22;52862;52.504;13.480;2023-06-14T05:16:55;17.00;99.90
51867;DHT22;52862;52.504;13.480;2023-06-14T05:19:22;17.10;99.90
51867;DHT22;52862;52.504;13.480;2023-06-14T05:21:48;17.20;99.90
51867;DHT22;52862;52.504;13.480;2023-06-14T05:24:16;17.20;99.90
51867;DHT22;52862;52.504;13.480;2023-06-14T05:26:44;17.40;99.90
51867;DHT22;52862;52.504;13.480;2023-06-14T05:29:11;17.50;99.90
51867;DHT22;52862;52.504;13.480;2023-06-14T05:31:38;17.50;99.90
51867;DHT22;52862;52.504;13.480;2023-06-14T05:34:04;17.50;99.90
51867;DHT22;52862;52.504;13.480;2023-06-14T05:36:31;17.60;99.90
51867;DHT22;52862;52.504;13.480;2023-06-14T05:38:58;17.70;99.90
51867;DHT22;52862;52.504;13.480;2023-06-14T05:41:28;17.70;99.90
51867;DHT22;52862;52.504;13.480;2023-06-14T05:43:55;17.70;99.90
51867;DHT22;52862;52.504;13.480;2023-06-14T05:46:22;17.60;99.90
51867;DHT22;52862;52.504;13.480;2023-06-14T05:48:51;17.60;99.90
51867;DHT22;52862;52.504;13.480;2023-06-14T05:51:18;17.60;99.90
51867;DHT22;52862;52.504;13.480;2023-06-14T05:53:45;17.60;99.90
51867;DHT22;52862;52.504;13.480;2023-06-14T05:56:12;17.60;99.90
51867;DHT22;52862;52.504;13.480;2023-06-14T05:58:39;17.60;99.90
51867;DHT22;52862;52.504;13.480;2023-06-14T06:01:06;17.60;99.90
51867;DHT22;52862;52.504;13.480;2023-06-14T06:03:33;17.60;99.90
51867;DHT22;52862;52.504;13.480;2023-06-14T06:06:00;17.60;99.90
51867;DHT22;52862;52.504;13.480;2023-06-14T06:08:27;17.60;99.90
51867;DHT22;52862;52.504;13.480;2023-06-14T06:10:54;17.50;99.90
51867;DHT22;52862;52.504;13.480;2023-06-14T06:13:20;17.40;99.90
51867;DHT22;52862;52.504;13.480;2023-06-14T06:15:48;17.40;99.90
51867;DHT22;52862;52.504;13.480;2023-06-14T06:18:15;17.30;99.90
51867;DHT22;52862;52.504;13.480;2023-06-14T06:20:41;17.30;99.90
51867;DHT22;52862;52.504;13.480;2023-06-14T06:23:10;17.40;99.90
51867;DHT22;52862;52.504;13.480;2023-06-14T06:25:36;17.40;99.90
51867;DHT22;52862;52.504;13.480;2023-06-14T06:28:03;17.50;99.90
51867;DHT22;52862;52.504;13.480;2023-06-14T06:30:30;17.50;99.90
51867;DHT22;52862;52.504;13.480;2023-06-14T06:32:57;17.50;99.90
51867;DHT22;52862;52.504;13.480;2023-06-14T06:35:25;17.50;99.90
51867;DHT22;52862;52.504;13.480;2023-06-14T06:37:52;17.50;99.90
51867;DHT22;52862;52.504;13.480;2023-06-14T06:40:19;17.40;99.90
51867;DHT22;52862;52.504;13.480;2023-06-14T06:42:45;17.50;99.90
51867;DHT22;52862;52.504;13.480;2023-06-14T06:45:12;17.40;99.90
51867;DHT22;52862;52.504;13.480;2023-06-14T06:47:39;17.50;99.90
51867;DHT22;52862;52.504;13.480;2023-06-14T06:50:08;17.70;99.90
51867;DHT22;52862;52.504;13.480;2023-06-14T06:52:35;17.90;99.90
51867;DHT22;52862;52.504;13.480;2023-06-14T06:55:02;17.80;99.90
51867;DHT22;52862;52.504;13.480;2023-06-14T06:57:29;17.90;99.90
51867;DHT22;52862;52.504;13.480;2023-06-14T06:59:57;17.90;99.90
51867;DHT22;52862;52.504;13.480;2023-06-14T07:02:24;18.00;99.90
51867;DHT22;52862;52.504;13.480;2023-06-14T07:04:51;18.30;99.90
51867;DHT22;52862;52.504;13.480;2023-06-14T07:07:18;18.40;99.90
51867;DHT22;52862;52.504;13.480;2023-06-14T07:09:45;18.60;99.90
51867;DHT22;52862;52.504;13.480;2023-06-14T07:12:12;18.80;99.90
51867;DHT22;52862;52.504;13.480;2023-06-14T07:14:38;19.00;99.90
51867;DHT22;52862;52.504;13.480;2023-06-14T07:17:05;19.00;99.90
51867;DHT22;52862;52.504;13.480;2023-06-14T07:19:32;19.00;99.90
51867;DHT22;52862;52.504;13.480;2023-06-14T07:21:59;19.10;99.90
51867;DHT22;52862;52.504;13.480;2023-06-14T07:24:26;19.20;99.90
51867;DHT22;52862;52.504;13.480;2023-06-14T07:26:55;19.20;99.90
51867;DHT22;52862;52.504;13.480;2023-06-14T07:29:22;19.50;99.90
51867;DHT22;52862;52.504;13.480;2023-06-14T07:31:51;19.80;99.90
51867;DHT22;52862;52.504;13.480;2023-06-14T07:34:18;20.00;99.90
51867;DHT22;52862;52.504;13.480;2023-06-14T07:36:45;20.10;99.90
51867;DHT22;52862;52.504;13.480;2023-06-14T07:39:12;20.00;99.90
51867;DHT22;52862;52.504;13.480;2023-06-14T07:41:39;20.00;99.90
51867;DHT22;52862;52.504;13.480;2023-06-14T07:44:06;19.80;99.90
51867;DHT22;52862;52.504;13.480;2023-06-14T07:46:33;20.00;99.90
51867;DHT22;52862;52.504;13.480;2023-06-14T07:49:00;20.00;99.90
51867;DHT22;52862;52.504;13.480;2023-06-14T07:51:27;19.70;99.90
51867;DHT22;52862;52.504;13.480;2023-06-14T07:53:54;20.10;99.90
51867;DHT22;52862;52.504;13.480;2023-06-14T07:56:21;20.20;99.90
51867;DHT22;52862;52.504;13.480;2023-06-14T07:58:48;20.20;99.90
51867;DHT22;52862;52.504;13.480;2023-06-14T08:01:15;20.10;99.90
51867;DHT22;52862;52.504;13.480;2023-06-14T08:03:42;19.80;99.90
51867;DHT22;52862;52.504;13.480;2023-06-14T08:06:09;19.70;99.90
51867;DHT22;52862;52.504;13.480;2023-06-14T08:08:36;19.60;99.90
51867;DHT22;52862;52.504;13.480;2023-06-14T08:11:03;19.80;99.90
51867;DHT22;52862;52.504;13.480;2023-06-14T08:13:29;19.90;99.90
51867;DHT22;52862;52.504;13.480;2023-06-14T08:15:57;20.10;99.90
51867;DHT22;52862;52.504;13.480;2023-06-14T08:18:24;20.10;99.90
51867;DHT22;52862;52.504;13.480;2023-06-14T08:20:51;20.40;99.90
51867;DHT22;52862;52.504;13.480;2023-06-14T08:23:18;20.70;99.90
51867;DHT22;52862;52.504;13.480;2023-06-14T08:25:47;20.90;99.90
51867;DHT22;52862;52.504;13.480;2023-06-14T08:28:13;21.10;99.90
51867;DHT22;52862;52.504;13.480;2023-06-14T08:30:41;21.40;99.90
51867;DHT22;52862;52.504;13.480;2023-06-14T08:33:09;21.10;99.90
51867;DHT22;52862;52.504;13.480;2023-06-14T08:35:43;21.00;99.90
51867;DHT22;52862;52.504;13.480;2023-06-14T08:38:10;20.70;99.90
51867;DHT22;52862;52.504;13.480;2023-06-14T08:40:38;20.40;99.90
51867;DHT22;52862;52.504;13.480;2023-06-14T08:43:04;20.50;99.90
51867;DHT22;52862;52.504;13.480;2023-06-14T08:45:31;20.60;99.90
51867;DHT22;52862;52.504;13.480;2023-06-14T08:47:59;20.90;99.90
51867;DHT22;52862;52.504;13.480;2023-06-14T08:50:27;21.10;99.90
51867;DHT22;52862;52.504;13.480;2023-06-14T08:52:57;21.30;99.90
51867;DHT22;52862;52.504;13.480;2023-06-14T08:55:27;21.50;99.90
51867;DHT22;52862;52.504;13.480;2023-06-14T08:57:55;21.60;99.90
51867;DHT22;52862;52.504;13.480;2023-06-14T09:00:24;21.90;99.90
51867;DHT22;52862;52.504;13.480;2023-06-14T09:02:51;22.20;99.90
51867;DHT22;52862;52.504;13.480;2023-06-14T09:05:22;22.40;99.90
51867;DHT22;52862;52.504;13.480;2023-06-14T09:07:50;22.50;99.70
51867;DHT22;52862;52.504;13.480;2023-06-14T09:10:17;22.60;99.50
51867;DHT22;52862;52.504;13.480;2023-06-14T09:12:44;22.20;98.50
51867;DHT22;52862;52.504;13.480;2023-06-14T09:15:10;22.20;98.50
51867;DHT22;52862;52.504;13.480;2023-06-14T09:17:38;22.10;98.60
51867;DHT22;52862;52.504;13.480;2023-06-14T09:20:07;22.30;98.90
51867;DHT22;52862;52.504;13.480;2023-06-14T09:22:35;22.40;98.60
51867;DHT22;52862;52.504;13.480;2023-06-14T09:25:03;22.50;98.20
51867;DHT22;52862;52.504;13.480;2023-06-14T09:27:31;22.50;97.70
51867;DHT22;52862;52.504;13.480;2023-06-14T09:30:01;22.60;97.80
51867;DHT22;52862;52.504;13.480;2023-06-14T09:32:28;22.60;97.90
51867;DHT22;52862;52.504;13.480;2023-06-14T09:34:55;22.50;97.40
51867;DHT22;52862;52.504;13.480;2023-06-14T09:37:28;22.50;98.10
51867;DHT22;52862;52.504;13.480;2023-06-14T09:39:56;22.70;97.60
51867;DHT22;52862;52.504;13.480;2023-06-14T09:42:23;23.00;97.00
51867;DHT22;52862;52.504;13.480;2023-06-14T09:44:52;23.20;96.70
51867;DHT22;52862;52.504;13.480;2023-06-14T09:47:19;23.40;95.90
51867;DHT22;52862;52.504;13.480;2023-06-14T09:49:46;23.50;95.60
51867;DHT22;52862;52.504;13.480;2023-06-14T09:52:15;23.50;95.50
51867;DHT22;52862;52.504;13.480;2023-06-14T09:54:43;23.50;95.50
51867;DHT22;52862;52.504;13.480;2023-06-14T09:57:11;23.50;95.30
51867;DHT22;52862;52.504;13.480;2023-06-14T09:59:41;23.40;94.60
51867;DHT22;52862;52.504;13.480;2023-06-14T10:02:12;23.00;94.40
51867;DHT22;52862;52.504;13.480;2023-06-14T10:04:46;22.90;95.00
51867;DHT22;52862;52.504;13.480;2023-06-14T10:07:15;22.70;95.40
51867;DHT22;52862;52.504;13.480;2023-06-14T10:09:44;22.60;95.30
51867;DHT22;52862;52.504;13.480;2023-06-14T10:12:16;22.60;95.40
51867;DHT22;52862;52.504;13.480;2023-06-14T10:14:48;22.60;95.70
51867;DHT22;52862;52.504;13.480;2023-06-14T10:17:25;22.70;96.20
51867;DHT22;52862;52.504;13.480;2023-06-14T10:19:56;22.80;96.40
51867;DHT22;52862;52.504;13.480;2023-06-14T10:22:29;22.60;95.50
51867;DHT22;52862;52.504;13.480;2023-06-14T10:24:57;22.70;95.50
51867;DHT22;52862;52.504;13.480;2023-06-14T10:27:23;22.60;95.60
51867;DHT22;52862;52.504;13.480;2023-06-14T10:30:06;22.60;95.70
51867;DHT22;52862;52.504;13.480;2023-06-14T10:32:34;22.50;96.00
51867;DHT22;52862;52.504;13.480;2023-06-14T10:35:04;22.40;95.60
51867;DHT22;52862;52.504;13.480;2023-06-14T10:37:31;22.30;95.60
51867;DHT22;52862;52.504;13.480;2023-06-14T10:39:58;22.30;96.00
51867;DHT22;52862;52.504;13.480;2023-06-14T10:42:28;22.20;95.70
51867;DHT22;52862;52.504;13.480;2023-06-14T10:44:58;22.20;95.90
51867;DHT22;52862;52.504;13.480;2023-06-14T10:47:27;22.10;95.70
51867;DHT22;52862;52.504;13.480;2023-06-14T10:49:55;22.30;95.90
51867;DHT22;52862;52.504;13.480;2023-06-14T10:52:24;22.50;95.80
51867;DHT22;52862;52.504;13.480;2023-06-14T10:55:07;22.80;95.40
51867;DHT22;52862;52.504;13.480;2023-06-14T10:57:39;23.20;95.00
51867;DHT22;52862;52.504;13.480;2023-06-14T11:00:19;23.40;94.40
51867;DHT22;52862;52.504;13.480;2023-06-14T11:05:55;23.60;92.70
51867;DHT22;52862;52.504;13.480;2023-06-14T11:08:39;23.70;92.70
51867;DHT22;52862;52.504;13.480;2023-06-14T11:11:07;23.70;92.80
51867;DHT22;52862;52.504;13.480;2023-06-14T11:13:37;23.70;92.90
51867;DHT22;52862;52.504;13.480;2023-06-14T11:16:10;23.70;92.90
51867;DHT22;52862;52.504;13.480;2023-06-14T11:18:37;23.90;93.00
51867;DHT22;52862;52.504;13.480;2023-06-14T11:21:05;24.00;92.50
51867;DHT22;52862;52.504;13.480;2023-06-14T11:23:32;24.00;91.90
51867;DHT22;52862;52.504;13.480;2023-06-14T11:25:59;24.00;91.90
51867;DHT22;52862;52.504;13.480;2023-06-14T11:28:36;24.20;92.20
51867;DHT22;52862;52.504;13.480;2023-06-14T11:31:03;24.50;91.50
51867;DHT22;52862;52.504;13.480;2023-06-14T11:33:31;24.60;90.80
51867;DHT22;52862;52.504;13.480;2023-06-14T11:35:57;24.60;91.20
51867;DHT22;52862;52.504;13.480;2023-06-14T11:38:25;24.60;90.40
51867;DHT22;52862;52.504;13.480;2023-06-14T11:40:52;23.80;90.00
51867;DHT22;52862;52.504;13.480;2023-06-14T11:43:19;24.60;90.50
51867;DHT22;52862;52.504;13.480;2023-06-14T11:45:48;24.50;89.60
51867;DHT22;52862;52.504;13.480;2023-06-14T11:48:36;24.60;89.00
51867;DHT22;52862;52.504;13.480;2023-06-14T11:51:03;24.90;89.00
51867;DHT22;52862;52.504;13.480;2023-06-14T11:53:30;24.80;88.80
51867;DHT22;52862;52.504;13.480;2023-06-14T11:55:57;24.70;85.70
51867;DHT22;52862;52.504;13.480;2023-06-14T11:58:25;24.60;85.70
51867;DHT22;52862;52.504;13.480;2023-06-14T12:00:53;24.70;85.90
51867;DHT22;52862;52.504;13.480;2023-06-14T12:03:23;24.80;85.80
51867;DHT22;52862;52.504;13.480;2023-06-14T12:06:01;25.00;85.70
51867;DHT22;52862;52.504;13.480;2023-06-14T12:08:33;24.80;85.30
51867;DHT22;52862;52.504;13.480;2023-06-14T12:11:05;25.10;85.50
51867;DHT22;52862;52.504;13.480;2023-06-14T12:13:32;25.20;86.60
51867;DHT22;52862;52.504;13.480;2023-06-14T12:15:59;25.60;84.50
51867;DHT22;52862;52.504;13.480;2023-06-14T12:18:33;25.70;83.50
51867;DHT22;52862;52.504;13.480;2023-06-14T12:21:01;25.90;84.80
51867;DHT22;52862;52.504;13.480;2023-06-14T12:23:41;26.00;82.30
51867;DHT22;52862;52.504;13.480;2023-06-14T12:26:08;26.20;79.30
51867;DHT22;52862;52.504;13.480;2023-06-14T12:28:37;26.40;79.80
51867;DHT22;52862;52.504;13.480;2023-06-14T12:31:06;26.40;79.50
51867;DHT22;52862;52.504;13.480;2023-06-14T12:33:33;26.70;78.30
51867;DHT22;52862;52.504;13.480;2023-06-14T12:35:59;26.80;77.90
51867;DHT22;52862;52.504;13.480;2023-06-14T12:38:29;27.30;75.20
51867;DHT22;52862;52.504;13.480;2023-06-14T12:40:56;27.40;74.30
51867;DHT22;52862;52.504;13.480;2023-06-14T12:43:23;27.60;73.00
51867;DHT22;52862;52.504;13.480;2023-06-14T12:45:50;27.50;71.50
51867;DHT22;52862;52.504;13.480;2023-06-14T12:48:17;27.50;72.30
51867;DHT22;52862;52.504;13.480;2023-06-14T12:50:43;27.40;72.00
51867;DHT22;52862;52.504;13.480;2023-06-14T12:53:10;27.00;72.90
51867;DHT22;52862;52.504;13.480;2023-06-14T12:55:37;26.90;73.10
51867;DHT22;52862;52.504;13.480;2023-06-14T12:58:05;26.90;73.10
51867;DHT22;52862;52.504;13.480;2023-06-14T13:00:32;27.10;71.70
51867;DHT22;52862;52.504;13.480;2023-06-14T13:02:58;26.90;69.80
51867;DHT22;52862;52.504;13.480;2023-06-14T13:05:25;26.90;71.30
51867;DHT22;52862;52.504;13.480;2023-06-14T13:07:52;27.20;70.30
51867;DHT22;52862;52.504;13.480;2023-06-14T13:10:19;27.70;69.80
51867;DHT22;52862;52.504;13.480;2023-06-14T13:12:45;28.10;68.00
51867;DHT22;52862;52.504;13.480;2023-06-14T13:15:14;28.00;67.50
51867;DHT22;52862;52.504;13.480;2023-06-14T13:17:41;28.40;67.40
51867;DHT22;52862;52.504;13.480;2023-06-14T13:20:09;28.30;67.70
51867;DHT22;52862;52.504;13.480;2023-06-14T13:22:37;28.40;67.40
51867;DHT22;52862;52.504;13.480;2023-06-14T13:25:06;28.90;65.50
51867;DHT22;52862;52.504;13.480;2023-06-14T13:27:32;29.30;63.30
51867;DHT22;52862;52.504;13.480;2023-06-14T13:29:59;29.50;64.50
51867;DHT22;52862;52.504;13.480;2023-06-14T13:32:27;29.10;64.60
51867;DHT22;52862;52.504;13.480;2023-06-14T13:34:54;28.70;64.00
51867;DHT22;52862;52.504;13.480;2023-06-14T13:37:21;29.00;63.80
51867;DHT22;52862;52.504;13.480;2023-06-14T13:39:48;29.20;62.80
51867;DHT22;52862;52.504;13.480;2023-06-14T13:42:14;29.20;64.90
51867;DHT22;52862;52.504;13.480;2023-06-14T13:44:41;28.30;64.40
51867;DHT22;52862;52.504;13.480;2023-06-14T13:47:08;27.70;65.00
51867;DHT22;52862;52.504;13.480;2023-06-14T13:49:35;27.30;66.40
51867;DHT22;52862;52.504;13.480;2023-06-14T13:52:02;27.00;67.30
51867;DHT22;52862;52.504;13.480;2023-06-14T13:54:29;27.60;66.30
51867;DHT22;52862;52.504;13.480;2023-06-14T13:56:56;27.50;66.60
51867;DHT22;52862;52.504;13.480;2023-06-14T13:59:22;27.50;67.40
51867;DHT22;52862;52.504;13.480;2023-06-14T14:01:49;27.50;67.50
51867;DHT22;52862;52.504;13.480;2023-06-14T14:04:16;28.30;65.90
51867;DHT22;52862;52.504;13.480;2023-06-14T14:06:43;28.40;65.00
51867;DHT22;52862;52.504;13.480;2023-06-14T14:09:14;28.10;65.50
51867;DHT22;52862;52.504;13.480;2023-06-14T14:11:40;27.60;65.50
51867;DHT22;52862;52.504;13.480;2023-06-14T14:14:08;27.20;66.10
51867;DHT22;52862;52.504;13.480;2023-06-14T14:16:36;27.00;67.20
51867;DHT22;52862;52.504;13.480;2023-06-14T14:19:03;26.80;67.30
51867;DHT22;52862;52.504;13.480;2023-06-14T14:21:30;26.90;67.20
51867;DHT22;52862;52.504;13.480;2023-06-14T14:23:57;29.40;63.50
51867;DHT22;52862;52.504;13.480;2023-06-14T14:26:25;31.10;60.00
51867;DHT22;52862;52.504;13.480;2023-06-14T14:28:51;32.00;58.50
51867;DHT22;52862;52.504;13.480;2023-06-14T14:31:18;32.80;56.70
51867;DHT22;52862;52.504;13.480;2023-06-14T14:33:45;32.60;55.60
51867;DHT22;52862;52.504;13.480;2023-06-14T14:36:12;31.70;56.20
51867;DHT22;52862;52.504;13.480;2023-06-14T14:38:39;32.00;56.00
51867;DHT22;52862;52.504;13.480;2023-06-14T14:41:07;33.70;54.50
51867;DHT22;52862;52.504;13.480;2023-06-14T14:43:33;35.40;52.70
51867;DHT22;52862;52.504;13.480;2023-06-14T14:46:00;35.90;51.30
51867;DHT22;52862;52.504;13.480;2023-06-14T14:48:27;35.80;50.10
51867;DHT22;52862;52.504;13.480;2023-06-14T14:50:54;33.90;50.70
51867;DHT22;52862;52.504;13.480;2023-06-14T14:53:21;32.10;53.20
51867;DHT22;52862;52.504;13.480;2023-06-14T14:55:48;30.50;55.00
51867;DHT22;52862;52.504;13.480;2023-06-14T14:58:15;29.30;56.20
51867;DHT22;52862;52.504;13.480;2023-06-14T15:00:44;28.10;57.70
51867;DHT22;52862;52.504;13.480;2023-06-14T15:03:11;27.30;59.90
51867;DHT22;52862;52.504;13.480;2023-06-14T15:05:38;26.60;60.80
51867;DHT22;52862;52.504;13.480;2023-06-14T15:08:05;26.10;62.40
51867;DHT22;52862;52.504;13.480;2023-06-14T15:10:36;25.40;64.30
51867;DHT22;52862;52.504;13.480;2023-06-14T15:13:03;25.10;66.40
51867;DHT22;52862;52.504;13.480;2023-06-14T15:15:30;24.60;67.20
51867;DHT22;52862;52.504;13.480;2023-06-14T15:17:57;24.40;68.00
51867;DHT22;52862;52.504;13.480;2023-06-14T15:20:24;24.30;68.60
51867;DHT22;52862;52.504;13.480;2023-06-14T15:22:50;24.10;68.90